sensor_id;sensor_type;location;lat;lon;timestamp;P1;durP1;ratioP1;P2;durP2;ratioP2
13343;SDS011;6741;48.964;9.406;2023-08-08T00:01:10;3.10;;;2.80;;
13343;SDS011;6741;48.964;9.406;2023-08-08T00:03:37;4.10;;;2.93;;
13343;SDS011;6741;48.964;9.406;2023-08-08T00:06:04;3.93;;;2.73;;
13343;SDS011;6741;48.964;9.406;2023-08-08T00:08:31;3.97;;;2.90;;
13343;SDS011;6741;48.964;9.406;2023-08-08T00:10:58;3.13;;;2.70;;
13343;SDS011;6741;48.964;9.406;2023-08-08T00:13:25;3.10;;;2.80;;
13343;SDS011;6741;48.964;9.406;2023-08-08T00:15:51;4.17;;;3.03;;
13343;SDS011;6741;48.964;9.406;2023-08-08T00:18:19;3.50;;;2.60;;
13343;SDS011;6741;48.964;9.406;2023-08-08T00:20:46;3.13;;;2.70;;
13343;SDS011;6741;48.964;9.406;2023-08-08T00:23:13;3.47;;;2.70;;
13343;SDS011;6741;48.964;9.406;2023-08-08T00:25:40;2.70;;;2.50;;
13343;SDS011;6741;48.964;9.406;2023-08-08T00:28:07;4.43;;;2.90;;
13343;SDS011;6741;48.964;9.406;2023-08-08T00:30:34;2.70;;;2.50;;
13343;SDS011;6741;48.964;9.406;2023-08-08T00:33:00;3.27;;;2.30;;
13343;SDS011;6741;48.964;9.406;2023-08-08T00:35:29;3.17;;;2.63;;
13343;SDS011;6741;48.964;9.406;2023-08-08T00:37:56;2.70;;;2.50;;
13343;SDS011;6741;48.964;9.406;2023-08-08T00:40:22;3.73;;;3.10;;
13343;SDS011;6741;48.964;9.406;2023-08-08T00:42:49;3.37;;;2.47;;
13343;SDS011;6741;48.964;9.406;2023-08-08T00:45:16;3.30;;;3.00;;
13343;SDS011;6741;48.964;9.406;2023-08-08T00:47:43;3.40;;;3.00;;
13343;SDS011;6741;48.964;9.406;2023-08-08T00:50:10;3.43;;;3.13;;
13343;SDS011;6741;48.964;9.406;2023-08-08T00:52:39;3.60;;;3.20;;
13343;SDS011;6741;48.964;9.406;2023-08-08T00:55:08;3.47;;;3.13;;
13343;SDS011;6741;48.964;9.406;2023-08-08T00:57:35;3.30;;;3.00;;
13343;SDS011;6741;48.964;9.406;2023-08-08T01:00:04;3.30;;;3.00;;
13343;SDS011;6741;48.964;9.406;2023-08-08T01:02:32;3.70;;;2.60;;
13343;SDS011;6741;48.964;9.406;2023-08-08T01:04:59;2.90;;;2.70;;
13343;SDS011;6741;48.964;9.406;2023-08-08T01:07:29;3.57;;;2.60;;
13343;SDS011;6741;48.964;9.406;2023-08-08T01:10:03;3.00;;;2.70;;
13343;SDS011;6741;48.964;9.406;2023-08-08T01:12:34;3.47;;;3.17;;
13343;SDS011;6741;48.964;9.406;2023-08-08T01:15:05;3.40;;;2.97;;
13343;SDS011;6741;48.964;9.406;2023-08-08T01:17:34;3.27;;;2.97;;
13343;SDS011;6741;48.964;9.406;2023-08-08T01:20:01;2.77;;;2.57;;
13343;SDS011;6741;48.964;9.406;2023-08-08T01:22:29;3.33;;;2.50;;
13343;SDS011;6741;48.964;9.406;2023-08-08T01:25:03;3.27;;;2.70;;
13343;SDS011;6741;48.964;9.406;2023-08-08T01:27:31;3.33;;;3.03;;
13343;SDS011;6741;48.964;9.406;2023-08-08T01:29:58;3.57;;;2.83;;
13343;SDS011;6741;48.964;9.406;2023-08-08T01:32:25;3.47;;;2.70;;
13343;SDS011;6741;48.964;9.406;2023-08-08T01:34:51;3.60;;;2.70;;
13343;SDS011;6741;48.964;9.406;2023-08-08T01:37:19;4.20;;;2.80;;
13343;SDS011;6741;48.964;9.406;2023-08-08T01:39:51;3.07;;;2.83;;
13343;SDS011;6741;48.964;9.406;2023-08-08T01:42:20;3.37;;;3.07;;
13343;SDS011;6741;48.964;9.406;2023-08-08T01:44:49;3.77;;;3.03;;
13343;SDS011;6741;48.964;9.406;2023-08-08T01:47:16;3.10;;;2.87;;
13343;SDS011;6741;48.964;9.406;2023-08-08T01:49:43;3.83;;;2.87;;
13343;SDS011;6741;48.964;9.406;2023-08-08T01:52:10;3.10;;;2.90;;
13343;SDS011;6741;48.964;9.406;2023-08-08T01:54:37;3.50;;;2.73;;
13343;SDS011;6741;48.964;9.406;2023-08-08T01:57:04;3.43;;;2.67;;
13343;SDS011;6741;48.964;9.406;2023-08-08T01:59:32;2.90;;;2.70;;
13343;SDS011;6741;48.964;9.406;2023-08-08T02:01:59;7.60;;;3.13;;
13343;SDS011;6741;48.964;9.406;2023-08-08T02:04:26;3.27;;;2.97;;
13343;SDS011;6741;48.964;9.406;2023-08-08T02:06:53;3.60;;;2.53;;
13343;SDS011;6741;48.964;9.406;2023-08-08T02:09:20;3.10;;;2.80;;
13343;SDS011;6741;48.964;9.406;2023-08-08T02:11:47;3.47;;;2.50;;
13343;SDS011;6741;48.964;9.406;2023-08-08T02:14:14;4.00;;;3.50;;
13343;SDS011;6741;48.964;9.406;2023-08-08T02:16:42;3.30;;;3.00;;
13343;SDS011;6741;48.964;9.406;2023-08-08T02:19:09;3.30;;;3.00;;
13343;SDS011;6741;48.964;9.406;2023-08-08T02:21:36;3.37;;;2.93;;
13343;SDS011;6741;48.964;9.406;2023-08-08T02:24:03;4.00;;;3.07;;
13343;SDS011;6741;48.964;9.406;2023-08-08T02:26:30;3.10;;;2.67;;
13343;SDS011;6741;48.964;9.406;2023-08-08T02:28:57;3.53;;;3.20;;
13343;SDS011;6741;48.964;9.406;2023-08-08T02:31:24;3.60;;;2.73;;
13343;SDS011;6741;48.964;9.406;2023-08-08T02:33:52;2.40;;;2.30;;
13343;SDS011;6741;48.964;9.406;2023-08-08T02:36:20;3.50;;;3.20;;
13343;SDS011;6741;48.964;9.406;2023-08-08T02:38:47;5.37;;;2.83;;
13343;SDS011;6741;48.964;9.406;2023-08-08T02:41:14;5.50;;;3.03;;
13343;SDS011;6741;48.964;9.406;2023-08-08T02:43:41;3.23;;;2.67;;
13343;SDS011;6741;48.964;9.406;2023-08-08T02:46:08;4.90;;;2.90;;
13343;SDS011;6741;48.964;9.406;2023-08-08T02:48:35;3.10;;;2.80;;
13343;SDS011;6741;48.964;9.406;2023-08-08T02:51:03;4.47;;;2.43;;
13343;SDS011;6741;48.964;9.406;2023-08-08T02:53:30;2.60;;;2.40;;
13343;SDS011;6741;48.964;9.406;2023-08-08T02:55:57;4.10;;;2.30;;
13343;SDS011;6741;48.964;9.406;2023-08-08T02:58:24;3.40;;;2.93;;
13343;SDS011;6741;48.964;9.406;2023-08-08T03:00:51;3.07;;;2.70;;
13343;SDS011;6741;48.964;9.406;2023-08-08T03:03:18;3.20;;;2.93;;
13343;SDS011;6741;48.964;9.406;2023-08-08T03:05:45;3.30;;;3.00;;
13343;SDS011;6741;48.964;9.406;2023-08-08T03:08:13;3.63;;;3.00;;
13343;SDS011;6741;48.964;9.406;2023-08-08T03:10:40;7.77;;;3.07;;
13343;SDS011;6741;48.964;9.406;2023-08-08T03:13:07;4.57;;;3.10;;
13343;SDS011;6741;48.964;9.406;2023-08-08T03:15:34;3.93;;;3.00;;
13343;SDS011;6741;48.964;9.406;2023-08-08T03:18:01;3.83;;;3.00;;
13343;SDS011;6741;48.964;9.406;2023-08-08T03:20:28;3.47;;;3.17;;
13343;SDS011;6741;48.964;9.406;2023-08-08T03:22:55;3.40;;;3.10;;
13343;SDS011;6741;48.964;9.406;2023-08-08T03:25:23;3.50;;;3.20;;
13343;SDS011;6741;48.964;9.406;2023-08-08T03:27:50;3.43;;;3.13;;
13343;SDS011;6741;48.964;9.406;2023-08-08T03:30:17;3.67;;;3.37;;
13343;SDS011;6741;48.964;9.406;2023-08-08T03:32:44;4.43;;;3.30;;
13343;SDS011;6741;48.964;9.406;2023-08-08T03:35:11;6.20;;;3.90;;
13343;SDS011;6741;48.964;9.406;2023-08-08T03:37:38;6.17;;;3.73;;
13343;SDS011;6741;48.964;9.406;2023-08-08T03:40:05;4.17;;;3.17;;
13343;SDS011;6741;48.964;9.406;2023-08-08T03:42:35;4.00;;;3.60;;
13343;SDS011;6741;48.964;9.406;2023-08-08T03:45:02;4.07;;;3.43;;
13343;SDS011;6741;48.964;9.406;2023-08-08T03:47:29;5.87;;;3.47;;
13343;SDS011;6741;48.964;9.406;2023-08-08T03:49:55;3.73;;;3.40;;
13343;SDS011;6741;48.964;9.406;2023-08-08T03:52:22;4.40;;;3.20;;
13343;SDS011;6741;48.964;9.406;2023-08-08T03:54:49;5.13;;;3.57;;
13343;SDS011;6741;48.964;9.406;2023-08-08T03:57:17;6.00;;;3.57;;
13343;SDS011;6741;48.964;9.406;2023-08-08T03:59:45;3.83;;;3.27;;
13343;SDS011;6741;48.964;9.406;2023-08-08T04:02:12;4.93;;;3.53;;
13343;SDS011;6741;48.964;9.406;2023-08-08T04:04:39;3.50;;;3.20;;
13343;SDS011;6741;48.964;9.406;2023-08-08T04:07:06;4.03;;;3.63;;
13343;SDS011;6741;48.964;9.406;2023-08-08T04:09:33;3.70;;;3.40;;
13343;SDS011;6741;48.964;9.406;2023-08-08T04:12:00;6.00;;;3.30;;
13343;SDS011;6741;48.964;9.406;2023-08-08T04:14:26;4.53;;;3.43;;
13343;SDS011;6741;48.964;9.406;2023-08-08T04:16:55;4.23;;;3.70;;
13343;SDS011;6741;48.964;9.406;2023-08-08T04:19:22;6.07;;;3.87;;
13343;SDS011;6741;48.964;9.406;2023-08-08T04:21:48;3.83;;;3.53;;
13343;SDS011;6741;48.964;9.406;2023-08-08T04:24:15;7.13;;;3.57;;
13343;SDS011;6741;48.964;9.406;2023-08-08T04:26:42;4.47;;;3.50;;
13343;SDS011;6741;48.964;9.406;2023-08-08T04:29:09;5.00;;;3.43;;
13343;SDS011;6741;48.964;9.406;2023-08-08T04:31:36;3.63;;;3.33;;
13343;SDS011;6741;48.964;9.406;2023-08-08T04:34:04;5.30;;;3.20;;
13343;SDS011;6741;48.964;9.406;2023-08-08T04:36:31;3.40;;;3.10;;
13343;SDS011;6741;48.964;9.406;2023-08-08T04:38:58;4.30;;;3.73;;
13343;SDS011;6741;48.964;9.406;2023-08-08T04:41:25;3.77;;;3.47;;
13343;SDS011;6741;48.964;9.406;2023-08-08T04:43:51;5.03;;;3.67;;
13343;SDS011;6741;48.964;9.406;2023-08-08T04:46:18;4.17;;;3.80;;
13343;SDS011;6741;48.964;9.406;2023-08-08T04:48:45;5.60;;;3.70;;
13343;SDS011;6741;48.964;9.406;2023-08-08T04:51:13;4.40;;;3.70;;
13343;SDS011;6741;48.964;9.406;2023-08-08T04:53:40;4.10;;;3.60;;
13343;SDS011;6741;48.964;9.406;2023-08-08T04:56:07;4.37;;;3.37;;
13343;SDS011;6741;48.964;9.406;2023-08-08T04:58:34;3.87;;;3.37;;
13343;SDS011;6741;48.964;9.406;2023-08-08T05:01:01;3.93;;;3.63;;
13343;SDS011;6741;48.964;9.406;2023-08-08T05:03:27;6.60;;;4.50;;
13343;SDS011;6741;48.964;9.406;2023-08-08T05:05:54;5.87;;;4.70;;
13343;SDS011;6741;48.964;9.406;2023-08-08T05:08:23;5.20;;;3.00;;
13343;SDS011;6741;48.964;9.406;2023-08-08T05:10:49;3.43;;;3.13;;
13343;SDS011;6741;48.964;9.406;2023-08-08T05:13:16;3.90;;;2.83;;
13343;SDS011;6741;48.964;9.406;2023-08-08T05:15:44;3.10;;;2.80;;
13343;SDS011;6741;48.964;9.406;2023-08-08T05:18:12;2.87;;;2.67;;
13343;SDS011;6741;48.964;9.406;2023-08-08T05:20:39;4.20;;;2.60;;
13343;SDS011;6741;48.964;9.406;2023-08-08T05:23:05;3.37;;;3.07;;
13343;SDS011;6741;48.964;9.406;2023-08-08T05:25:34;3.20;;;2.90;;
13343;SDS011;6741;48.964;9.406;2023-08-08T05:28:01;3.87;;;2.90;;
13343;SDS011;6741;48.964;9.406;2023-08-08T05:30:28;4.47;;;3.47;;
13343;SDS011;6741;48.964;9.406;2023-08-08T05:32:54;4.63;;;3.10;;
13343;SDS011;6741;48.964;9.406;2023-08-08T05:35:21;3.47;;;3.17;;
13343;SDS011;6741;48.964;9.406;2023-08-08T05:37:48;4.10;;;3.03;;
13343;SDS011;6741;48.964;9.406;2023-08-08T05:40:15;4.00;;;2.83;;
13343;SDS011;6741;48.964;9.406;2023-08-08T05:42:43;3.53;;;2.43;;
13343;SDS011;6741;48.964;9.406;2023-08-08T05:45:10;3.33;;;2.70;;
13343;SDS011;6741;48.964;9.406;2023-08-08T05:47:37;3.13;;;2.83;;
13343;SDS011;6741;48.964;9.406;2023-08-08T05:50:04;4.10;;;3.20;;
13343;SDS011;6741;48.964;9.406;2023-08-08T05:52:32;2.77;;;2.33;;
13343;SDS011;6741;48.964;9.406;2023-08-08T05:54:59;3.30;;;2.90;;
13343;SDS011;6741;48.964;9.406;2023-08-08T05:57:26;2.77;;;2.53;;
13343;SDS011;6741;48.964;9.406;2023-08-08T05:59:54;4.13;;;2.40;;
13343;SDS011;6741;48.964;9.406;2023-08-08T06:02:21;3.37;;;2.87;;
13343;SDS011;6741;48.964;9.406;2023-08-08T06:04:48;3.03;;;2.57;;
13343;SDS011;6741;48.964;9.406;2023-08-08T06:07:15;3.73;;;2.40;;
13343;SDS011;6741;48.964;9.406;2023-08-08T06:09:41;3.83;;;3.23;;
13343;SDS011;6741;48.964;9.406;2023-08-08T06:12:09;3.20;;;2.90;;
13343;SDS011;6741;48.964;9.406;2023-08-08T06:14:36;3.10;;;2.67;;
13343;SDS011;6741;48.964;9.406;2023-08-08T06:17:04;2.60;;;2.40;;
13343;SDS011;6741;48.964;9.406;2023-08-08T06:19:31;5.30;;;2.90;;
13343;SDS011;6741;48.964;9.406;2023-08-08T06:21:58;4.37;;;2.93;;
13343;SDS011;6741;48.964;9.406;2023-08-08T06:24:25;3.10;;;2.77;;
13343;SDS011;6741;48.964;9.406;2023-08-08T06:26:52;2.90;;;2.70;;
13343;SDS011;6741;48.964;9.406;2023-08-08T06:29:18;3.67;;;2.37;;
13343;SDS011;6741;48.964;9.406;2023-08-08T06:31:45;3.13;;;2.83;;
13343;SDS011;6741;48.964;9.406;2023-08-08T06:34:14;2.27;;;2.00;;
13343;SDS011;6741;48.964;9.406;2023-08-08T06:36:42;2.87;;;2.57;;
13343;SDS011;6741;48.964;9.406;2023-08-08T06:39:09;4.25;;;2.55;;
13343;SDS011;6741;48.964;9.406;2023-08-08T06:41:36;3.97;;;2.97;;
13343;SDS011;6741;48.964;9.406;2023-08-08T06:44:04;2.83;;;2.08;;
13343;SDS011;6741;48.964;9.406;2023-08-08T06:46:33;3.05;;;2.42;;
13343;SDS011;6741;48.964;9.406;2023-08-08T06:49:00;2.92;;;1.77;;
13343;SDS011;6741;48.964;9.406;2023-08-08T06:51:28;3.38;;;1.90;;
13343;SDS011;6741;48.964;9.406;2023-08-08T06:53:55;2.67;;;1.73;;
13343;SDS011;6741;48.964;9.406;2023-08-08T06:56:22;2.63;;;1.85;;
13343;SDS011;6741;48.964;9.406;2023-08-08T06:58:51;2.60;;;2.10;;
13343;SDS011;6741;48.964;9.406;2023-08-08T07:01:18;2.15;;;1.83;;
13343;SDS011;6741;48.964;9.406;2023-08-08T07:03:45;2.38;;;1.98;;
13343;SDS011;6741;48.964;9.406;2023-08-08T07:06:12;2.15;;;1.58;;
13343;SDS011;6741;48.964;9.406;2023-08-08T07:08:40;3.25;;;1.70;;
13343;SDS011;6741;48.964;9.406;2023-08-08T07:11:07;2.05;;;1.70;;
13343;SDS011;6741;48.964;9.406;2023-08-08T07:13:34;2.40;;;1.85;;
13343;SDS011;6741;48.964;9.406;2023-08-08T07:16:01;2.97;;;1.70;;
13343;SDS011;6741;48.964;9.406;2023-08-08T07:18:28;2.45;;;1.75;;
13343;SDS011;6741;48.964;9.406;2023-08-08T07:20:55;1.60;;;1.40;;
13343;SDS011;6741;48.964;9.406;2023-08-08T07:23:22;2.88;;;1.50;;
13343;SDS011;6741;48.964;9.406;2023-08-08T07:25:50;1.77;;;1.50;;
13343;SDS011;6741;48.964;9.406;2023-08-08T07:28:17;2.30;;;2.10;;
13343;SDS011;6741;48.964;9.406;2023-08-08T07:30:44;2.35;;;1.60;;
13343;SDS011;6741;48.964;9.406;2023-08-08T07:33:11;2.10;;;1.65;;
13343;SDS011;6741;48.964;9.406;2023-08-08T07:35:39;1.50;;;1.40;;
13343;SDS011;6741;48.964;9.406;2023-08-08T07:38:06;1.90;;;1.55;;
13343;SDS011;6741;48.964;9.406;2023-08-08T07:40:33;1.80;;;1.70;;
13343;SDS011;6741;48.964;9.406;2023-08-08T07:43:02;2.67;;;1.33;;
13343;SDS011;6741;48.964;9.406;2023-08-08T07:45:29;5.05;;;1.63;;
13343;SDS011;6741;48.964;9.406;2023-08-08T07:47:56;3.50;;;1.42;;
13343;SDS011;6741;48.964;9.406;2023-08-08T07:50:23;2.03;;;1.15;;
13343;SDS011;6741;48.964;9.406;2023-08-08T07:52:49;1.60;;;1.25;;
13343;SDS011;6741;48.964;9.406;2023-08-08T07:55:16;2.50;;;1.30;;
13343;SDS011;6741;48.964;9.406;2023-08-08T07:57:43;3.38;;;1.95;;
13343;SDS011;6741;48.964;9.406;2023-08-08T08:00:12;1.52;;;1.42;;
13343;SDS011;6741;48.964;9.406;2023-08-08T08:02:39;1.58;;;1.40;;
13343;SDS011;6741;48.964;9.406;2023-08-08T08:05:08;1.60;;;1.33;;
13343;SDS011;6741;48.964;9.406;2023-08-08T08:07:35;3.05;;;1.20;;
13343;SDS011;6741;48.964;9.406;2023-08-08T08:10:04;2.47;;;1.35;;
13343;SDS011;6741;48.964;9.406;2023-08-08T08:12:34;2.53;;;1.40;;
13343;SDS011;6741;48.964;9.406;2023-08-08T08:15:02;2.03;;;1.00;;
13343;SDS011;6741;48.964;9.406;2023-08-08T08:17:30;2.55;;;1.50;;
13343;SDS011;6741;48.964;9.406;2023-08-08T08:19:58;2.40;;;1.25;;
13343;SDS011;6741;48.964;9.406;2023-08-08T08:22:25;1.20;;;1.10;;
13343;SDS011;6741;48.964;9.406;2023-08-08T08:24:52;3.20;;;1.65;;
13343;SDS011;6741;48.964;9.406;2023-08-08T08:27:18;1.42;;;1.30;;
13343;SDS011;6741;48.964;9.406;2023-08-08T08:29:45;4.18;;;1.15;;
13343;SDS011;6741;48.964;9.406;2023-08-08T08:32:13;2.05;;;1.30;;
13343;SDS011;6741;48.964;9.406;2023-08-08T08:34:41;2.45;;;1.40;;
13343;SDS011;6741;48.964;9.406;2023-08-08T08:37:09;6.03;;;1.40;;
13343;SDS011;6741;48.964;9.406;2023-08-08T08:39:36;2.33;;;1.30;;
13343;SDS011;6741;48.964;9.406;2023-08-08T08:42:03;3.10;;;1.38;;
13343;SDS011;6741;48.964;9.406;2023-08-08T08:44:32;3.35;;;1.33;;
13343;SDS011;6741;48.964;9.406;2023-08-08T08:46:59;3.83;;;1.50;;
13343;SDS011;6741;48.964;9.406;2023-08-08T08:49:29;3.55;;;1.50;;
13343;SDS011;6741;48.964;9.406;2023-08-08T08:51:58;1.70;;;1.58;;
13343;SDS011;6741;48.964;9.406;2023-08-08T08:54:27;2.97;;;1.40;;
13343;SDS011;6741;48.964;9.406;2023-08-08T08:56:55;1.90;;;1.35;;
13343;SDS011;6741;48.964;9.406;2023-08-08T08:59:22;2.00;;;1.30;;
13343;SDS011;6741;48.964;9.406;2023-08-08T09:01:49;1.88;;;1.10;;
13343;SDS011;6741;48.964;9.406;2023-08-08T09:04:18;1.95;;;1.27;;
13343;SDS011;6741;48.964;9.406;2023-08-08T09:06:47;3.33;;;1.80;;
13343;SDS011;6741;48.964;9.406;2023-08-08T09:09:16;2.90;;;1.48;;
13343;SDS011;6741;48.964;9.406;2023-08-08T09:11:47;1.95;;;1.33;;
13343;SDS011;6741;48.964;9.406;2023-08-08T09:14:16;1.83;;;1.40;;
13343;SDS011;6741;48.964;9.406;2023-08-08T09:16:44;1.63;;;1.20;;
13343;SDS011;6741;48.964;9.406;2023-08-08T09:19:11;1.88;;;1.40;;
13343;SDS011;6741;48.964;9.406;2023-08-08T09:21:38;1.60;;;1.40;;
13343;SDS011;6741;48.964;9.406;2023-08-08T09:24:05;7.22;;;2.15;;
13343;SDS011;6741;48.964;9.406;2023-08-08T09:26:33;1.35;;;1.25;;
13343;SDS011;6741;48.964;9.406;2023-08-08T09:29:00;2.42;;;1.50;;
13343;SDS011;6741;48.964;9.406;2023-08-08T09:31:28;1.23;;;1.13;;
13343;SDS011;6741;48.964;9.406;2023-08-08T09:33:56;2.17;;;1.13;;
13343;SDS011;6741;48.964;9.406;2023-08-08T09:36:24;2.45;;;1.38;;
13343;SDS011;6741;48.964;9.406;2023-08-08T09:38:52;1.38;;;1.20;;
13343;SDS011;6741;48.964;9.406;2023-08-08T09:41:19;2.13;;;1.42;;
13343;SDS011;6741;48.964;9.406;2023-08-08T09:43:48;2.53;;;1.17;;
13343;SDS011;6741;48.964;9.406;2023-08-08T09:46:16;1.63;;;1.20;;
13343;SDS011;6741;48.964;9.406;2023-08-08T09:48:45;2.10;;;1.42;;
13343;SDS011;6741;48.964;9.406;2023-08-08T09:51:12;1.48;;;1.38;;
13343;SDS011;6741;48.964;9.406;2023-08-08T09:53:40;2.10;;;1.40;;
13343;SDS011;6741;48.964;9.406;2023-08-08T09:56:07;1.40;;;1.25;;
13343;SDS011;6741;48.964;9.406;2023-08-08T09:58:34;1.48;;;1.15;;
13343;SDS011;6741;48.964;9.406;2023-08-08T10:01:03;1.60;;;1.50;;
13343;SDS011;6741;48.964;9.406;2023-08-08T10:03:31;2.80;;;1.23;;
13343;SDS011;6741;48.964;9.406;2023-08-08T10:06:00;2.30;;;1.40;;
13343;SDS011;6741;48.964;9.406;2023-08-08T10:08:27;1.30;;;1.20;;
13343;SDS011;6741;48.964;9.406;2023-08-08T10:10:56;1.92;;;1.30;;
13343;SDS011;6741;48.964;9.406;2023-08-08T10:13:23;1.50;;;1.40;;
13343;SDS011;6741;48.964;9.406;2023-08-08T10:15:51;2.22;;;1.08;;
13343;SDS011;6741;48.964;9.406;2023-08-08T10:18:20;2.22;;;1.30;;
13343;SDS011;6741;48.964;9.406;2023-08-08T10:20:48;1.55;;;0.93;;
13343;SDS011;6741;48.964;9.406;2023-08-08T10:23:16;2.40;;;1.30;;
13343;SDS011;6741;48.964;9.406;2023-08-08T10:25:45;1.20;;;1.00;;
13343;SDS011;6741;48.964;9.406;2023-08-08T10:28:13;2.25;;;1.15;;
13343;SDS011;6741;48.964;9.406;2023-08-08T10:30:44;1.88;;;1.40;;
13343;SDS011;6741;48.964;9.406;2023-08-08T10:33:15;2.40;;;1.50;;
13343;SDS011;6741;48.964;9.406;2023-08-08T10:35:51;3.28;;;1.30;;
13343;SDS011;6741;48.964;9.406;2023-08-08T10:38:23;1.10;;;1.00;;
13343;SDS011;6741;48.964;9.406;2023-08-08T10:40:54;1.60;;;1.50;;
13343;SDS011;6741;48.964;9.406;2023-08-08T10:43:25;2.25;;;1.45;;
13343;SDS011;6741;48.964;9.406;2023-08-08T10:45:56;2.22;;;1.42;;
13343;SDS011;6741;48.964;9.406;2023-08-08T10:48:23;2.13;;;1.25;;
13343;SDS011;6741;48.964;9.406;2023-08-08T10:50:53;2.58;;;1.10;;
13343;SDS011;6741;48.964;9.406;2023-08-08T10:53:22;1.38;;;1.02;;
13343;SDS011;6741;48.964;9.406;2023-08-08T10:55:55;1.60;;;1.08;;
13343;SDS011;6741;48.964;9.406;2023-08-08T11:01:07;1.35;;;1.25;;
13343;SDS011;6741;48.964;9.406;2023-08-08T11:03:35;1.17;;;1.05;;
13343;SDS011;6741;48.964;9.406;2023-08-08T11:06:05;1.20;;;1.10;;
13343;SDS011;6741;48.964;9.406;2023-08-08T11:08:33;2.55;;;1.15;;
13343;SDS011;6741;48.964;9.406;2023-08-08T11:11:01;1.17;;;1.02;;
13343;SDS011;6741;48.964;9.406;2023-08-08T11:13:28;2.30;;;1.20;;
13343;SDS011;6741;48.964;9.406;2023-08-08T11:15:55;3.00;;;1.42;;
13343;SDS011;6741;48.964;9.406;2023-08-08T11:18:23;1.58;;;1.23;;
13343;SDS011;6741;48.964;9.406;2023-08-08T11:20:50;3.63;;;1.25;;
13343;SDS011;6741;48.964;9.406;2023-08-08T11:23:19;1.48;;;1.10;;
13343;SDS011;6741;48.964;9.406;2023-08-08T11:25:46;1.10;;;0.95;;
13343;SDS011;6741;48.964;9.406;2023-08-08T11:28:13;2.38;;;1.35;;
13343;SDS011;6741;48.964;9.406;2023-08-08T11:30:41;1.83;;;1.05;;
13343;SDS011;6741;48.964;9.406;2023-08-08T11:33:09;1.30;;;1.20;;
13343;SDS011;6741;48.964;9.406;2023-08-08T11:35:42;3.05;;;1.08;;
13343;SDS011;6741;48.964;9.406;2023-08-08T11:38:11;2.20;;;1.25;;
13343;SDS011;6741;48.964;9.406;2023-08-08T11:40:41;2.65;;;1.17;;
13343;SDS011;6741;48.964;9.406;2023-08-08T11:43:09;1.45;;;1.17;;
13343;SDS011;6741;48.964;9.406;2023-08-08T11:45:37;1.77;;;0.95;;
13343;SDS011;6741;48.964;9.406;2023-08-08T11:48:04;1.15;;;0.95;;
13343;SDS011;6741;48.964;9.406;2023-08-08T11:50:31;1.38;;;1.25;;
13343;SDS011;6741;48.964;9.406;2023-08-08T11:52:58;2.72;;;1.40;;
13343;SDS011;6741;48.964;9.406;2023-08-08T11:55:29;0.80;;;0.80;;
13343;SDS011;6741;48.964;9.406;2023-08-08T11:57:58;1.50;;;1.35;;
13343;SDS011;6741;48.964;9.406;2023-08-08T12:00:26;1.58;;;1.10;;
13343;SDS011;6741;48.964;9.406;2023-08-08T12:02:54;0.90;;;0.90;;
13343;SDS011;6741;48.964;9.406;2023-08-08T12:05:22;2.10;;;1.17;;
13343;SDS011;6741;48.964;9.406;2023-08-08T12:07:49;2.97;;;1.30;;
13343;SDS011;6741;48.964;9.406;2023-08-08T12:10:18;2.17;;;1.30;;
13343;SDS011;6741;48.964;9.406;2023-08-08T12:12:45;1.75;;;1.20;;
13343;SDS011;6741;48.964;9.406;2023-08-08T12:15:14;1.40;;;1.30;;
13343;SDS011;6741;48.964;9.406;2023-08-08T12:17:42;2.40;;;1.48;;
13343;SDS011;6741;48.964;9.406;2023-08-08T12:20:09;1.35;;;1.25;;
13343;SDS011;6741;48.964;9.406;2023-08-08T12:22:36;2.03;;;1.60;;
13343;SDS011;6741;48.964;9.406;2023-08-08T12:25:03;1.33;;;1.10;;
13343;SDS011;6741;48.964;9.406;2023-08-08T12:27:31;1.77;;;1.20;;
13343;SDS011;6741;48.964;9.406;2023-08-08T12:29:58;2.20;;;1.10;;
13343;SDS011;6741;48.964;9.406;2023-08-08T12:32:27;2.00;;;1.48;;
13343;SDS011;6741;48.964;9.406;2023-08-08T12:34:56;1.33;;;1.02;;
13343;SDS011;6741;48.964;9.406;2023-08-08T12:37:23;1.17;;;1.17;;
13343;SDS011;6741;48.964;9.406;2023-08-08T12:39:50;2.42;;;1.20;;
13343;SDS011;6741;48.964;9.406;2023-08-08T12:42:17;3.22;;;1.38;;
13343;SDS011;6741;48.964;9.406;2023-08-08T12:44:44;1.90;;;1.17;;
13343;SDS011;6741;48.964;9.406;2023-08-08T12:47:11;2.28;;;1.45;;
13343;SDS011;6741;48.964;9.406;2023-08-08T12:49:40;2.95;;;1.40;;
13343;SDS011;6741;48.964;9.406;2023-08-08T12:52:07;2.65;;;1.00;;
13343;SDS011;6741;48.964;9.406;2023-08-08T12:54:34;1.45;;;1.30;;
13343;SDS011;6741;48.964;9.406;2023-08-08T12:57:02;1.15;;;1.08;;
13343;SDS011;6741;48.964;9.406;2023-08-08T12:59:29;1.45;;;1.13;;
13343;SDS011;6741;48.964;9.406;2023-08-08T13:01:56;1.10;;;1.00;;
13343;SDS011;6741;48.964;9.406;2023-08-08T13:04:22;1.38;;;1.27;;
13343;SDS011;6741;48.964;9.406;2023-08-08T13:06:51;1.10;;;0.98;;
13343;SDS011;6741;48.964;9.406;2023-08-08T13:09:18;1.45;;;1.35;;
13343;SDS011;6741;48.964;9.406;2023-08-08T13:11:46;1.98;;;1.20;;
13343;SDS011;6741;48.964;9.406;2023-08-08T13:14:12;1.67;;;1.25;;
13343;SDS011;6741;48.964;9.406;2023-08-08T13:16:39;0.90;;;0.85;;
13343;SDS011;6741;48.964;9.406;2023-08-08T13:19:06;1.80;;;1.00;;
13343;SDS011;6741;48.964;9.406;2023-08-08T13:21:33;1.08;;;1.08;;
13343;SDS011;6741;48.964;9.406;2023-08-08T13:24:01;2.35;;;1.30;;
13343;SDS011;6741;48.964;9.406;2023-08-08T13:26:29;0.80;;;0.80;;
13343;SDS011;6741;48.964;9.406;2023-08-08T13:28:56;0.80;;;0.80;;
13343;SDS011;6741;48.964;9.406;2023-08-08T13:31:23;1.73;;;1.05;;
13343;SDS011;6741;48.964;9.406;2023-08-08T13:33:49;1.15;;;1.05;;
13343;SDS011;6741;48.964;9.406;2023-08-08T13:36:16;1.05;;;0.85;;
13343;SDS011;6741;48.964;9.406;2023-08-08T13:38:43;1.50;;;0.95;;
13343;SDS011;6741;48.964;9.406;2023-08-08T13:41:11;1.17;;;1.10;;
13343;SDS011;6741;48.964;9.406;2023-08-08T13:43:38;10.30;;;2.38;;
13343;SDS011;6741;48.964;9.406;2023-08-08T13:46:05;1.77;;;1.30;;
13343;SDS011;6741;48.964;9.406;2023-08-08T13:48:34;1.17;;;1.00;;
13343;SDS011;6741;48.964;9.406;2023-08-08T13:51:01;2.55;;;1.35;;
13343;SDS011;6741;48.964;9.406;2023-08-08T13:53:28;1.30;;;1.10;;
13343;SDS011;6741;48.964;9.406;2023-08-08T13:55:55;0.95;;;0.95;;
13343;SDS011;6741;48.964;9.406;2023-08-08T13:58:24;1.05;;;0.95;;
13343;SDS011;6741;48.964;9.406;2023-08-08T14:00:51;0.85;;;0.85;;
13343;SDS011;6741;48.964;9.406;2023-08-08T14:03:18;1.30;;;1.20;;
13343;SDS011;6741;48.964;9.406;2023-08-08T14:05:45;1.08;;;1.00;;
13343;SDS011;6741;48.964;9.406;2023-08-08T14:08:12;2.25;;;1.13;;
13343;SDS011;6741;48.964;9.406;2023-08-08T14:10:39;1.17;;;1.10;;
13343;SDS011;6741;48.964;9.406;2023-08-08T14:13:06;3.08;;;1.02;;
13343;SDS011;6741;48.964;9.406;2023-08-08T14:15:34;1.08;;;1.05;;
13343;SDS011;6741;48.964;9.406;2023-08-08T14:18:01;2.15;;;1.17;;
13343;SDS011;6741;48.964;9.406;2023-08-08T14:20:28;1.48;;;1.15;;
13343;SDS011;6741;48.964;9.406;2023-08-08T14:22:55;1.25;;;0.90;;
13343;SDS011;6741;48.964;9.406;2023-08-08T14:25:22;1.40;;;1.00;;
13343;SDS011;6741;48.964;9.406;2023-08-08T14:27:49;2.10;;;1.50;;
13343;SDS011;6741;48.964;9.406;2023-08-08T14:30:16;1.23;;;1.00;;
13343;SDS011;6741;48.964;9.406;2023-08-08T14:32:44;4.47;;;1.45;;
13343;SDS011;6741;48.964;9.406;2023-08-08T14:35:11;3.47;;;1.10;;
13343;SDS011;6741;48.964;9.406;2023-08-08T14:37:38;1.38;;;1.15;;
13343;SDS011;6741;48.964;9.406;2023-08-08T14:40:06;1.15;;;1.10;;
13343;SDS011;6741;48.964;9.406;2023-08-08T14:42:34;1.25;;;1.15;;
13343;SDS011;6741;48.964;9.406;2023-08-08T14:45:00;2.58;;;1.17;;
13343;SDS011;6741;48.964;9.406;2023-08-08T14:47:27;1.02;;;0.93;;
13343;SDS011;6741;48.964;9.406;2023-08-08T14:49:56;2.17;;;1.35;;
13343;SDS011;6741;48.964;9.406;2023-08-08T14:52:23;1.98;;;1.38;;
13343;SDS011;6741;48.964;9.406;2023-08-08T14:54:50;2.08;;;1.30;;
13343;SDS011;6741;48.964;9.406;2023-08-08T14:57:17;1.15;;;1.05;;
13343;SDS011;6741;48.964;9.406;2023-08-08T14:59:44;1.05;;;1.05;;
13343;SDS011;6741;48.964;9.406;2023-08-08T15:02:11;1.30;;;1.20;;
13343;SDS011;6741;48.964;9.406;2023-08-08T15:04:38;3.58;;;1.20;;